createdAt,value
2018-06-15T00:00:25.753Z,36.83
2018-06-15T00:03:00.133Z,36.36
2018-06-15T00:05:29.605Z,36.08
2018-06-15T00:07:58.883Z,35.92
2018-06-15T00:10:28.073Z,36.64
2018-06-15T00:12:57.605Z,36.93
2018-06-15T00:15:26.990Z,36.98
2018-06-15T00:17:56.117Z,36.53
2018-06-15T00:20:25.450Z,36.12
2018-06-15T00:22:54.737Z,36.50
2018-06-15T00:25:23.913Z,36.74
2018-06-15T00:27:53.039Z,36.22
2018-06-15T00:30:22.267Z,36.49
2018-06-15T00:32:51.532Z,36.38
2018-06-15T00:35:20.648Z,37.34
2018-06-15T00:37:49.806Z,38.30
2018-06-15T00:40:19.059Z,38.24
2018-06-15T00:42:48.196Z,39.98
2018-06-15T00:45:17.349Z,41.11
2018-06-15T00:47:46.554Z,40.97
2018-06-15T00:50:15.693Z,41.16
2018-06-15T00:52:44.898Z,40.54
2018-06-15T00:55:14.057Z,40.92
2018-06-15T00:57:48.078Z,40.48
2018-06-15T01:00:17.698Z,41.46
2018-06-15T01:02:46.964Z,42.14
2018-06-15T01:05:16.132Z,42.76
2018-06-15T01:07:45.321Z,42.54
2018-06-15T01:10:14.481Z,42.33
2018-06-15T01:12:43.651Z,42.71
2018-06-15T01:15:12.833Z,42.36
2018-06-15T01:17:42.064Z,42.74
2018-06-15T01:20:11.258Z,43.16
2018-06-15T01:22:40.453Z,43.77
2018-06-15T01:25:09.670Z,43.96
2018-06-15T01:27:38.956Z,43.83
2018-06-15T01:30:08.150Z,43.06
2018-06-15T01:32:37.332Z,43.71
2018-06-15T01:35:06.988Z,44.04
2018-06-15T01:37:36.151Z,43.54
2018-06-15T01:40:05.338Z,43.13
2018-06-15T01:42:34.515Z,42.90
2018-06-15T01:45:03.635Z,44.12
2018-06-15T01:47:32.758Z,44.26
2018-06-15T01:50:01.936Z,44.25
2018-06-15T01:52:31.120Z,43.75
2018-06-15T01:55:00.338Z,44.60
2018-06-15T01:57:29.507Z,43.81
2018-06-15T01:59:58.823Z,43.60
2018-06-15T02:02:28.029Z,42.79
2018-06-15T02:04:57.284Z,43.16
2018-06-15T02:07:26.445Z,44.11
2018-06-15T02:09:55.734Z,44.00
2018-06-15T02:12:24.943Z,43.33
2018-06-15T02:14:54.112Z,43.63
2018-06-15T02:17:23.543Z,43.37
2018-06-15T02:19:52.722Z,44.17
2018-06-15T02:22:22.056Z,43.72
2018-06-15T02:24:51.241Z,44.36
2018-06-15T02:27:20.545Z,45.08
2018-06-15T02:29:49.760Z,44.46
2018-06-15T02:32:19.028Z,45.10
2018-06-15T02:34:48.248Z,45.36
2018-06-15T02:37:17.379Z,45.89
2018-06-15T02:39:46.542Z,45.81
2018-06-15T02:42:15.741Z,46.52
2018-06-15T02:44:44.939Z,46.19
2018-06-15T02:47:14.106Z,45.25
2018-06-15T02:49:43.444Z,45.30
2018-06-15T02:52:12.817Z,46.55
2018-06-15T02:54:42.078Z,46.12
2018-06-15T02:57:11.636Z,45.28
2018-06-15T02:59:40.822Z,44.67
2018-06-15T03:02:10.106Z,45.72
2018-06-15T03:04:39.367Z,46.26
2018-06-15T03:07:08.570Z,46.48
2018-06-15T03:09:37.781Z,45.82
2018-06-15T03:12:07.022Z,45.01
2018-06-15T03:14:36.485Z,45.65
2018-06-15T03:17:05.637Z,45.70
2018-06-15T03:19:34.859Z,46.19
2018-06-15T03:22:04.057Z,46.47
2018-06-15T03:24:33.358Z,46.22
2018-06-15T03:27:02.697Z,46.04
2018-06-15T03:29:31.896Z,46.11
2018-06-15T03:32:01.052Z,45.36
2018-06-15T03:34:30.196Z,45.86
2018-06-15T03:36:59.346Z,45.44
2018-06-15T03:39:28.565Z,45.58
2018-06-15T03:41:57.693Z,46.67
2018-06-15T03:44:27.116Z,47.05
2018-06-15T03:46:56.370Z,46.27
2018-06-15T03:49:32.073Z,45.50
2018-06-15T03:52:01.393Z,46.86
2018-06-15T03:54:30.529Z,46.41
2018-06-15T03:57:00.061Z,45.69
2018-06-15T03:59:29.235Z,45.95
2018-06-15T04:01:58.462Z,45.44
2018-06-15T04:04:27.639Z,45.74
2018-06-15T04:06:56.871Z,45.20
2018-06-15T04:09:26.049Z,45.60
2018-06-15T04:11:55.302Z,45.85
2018-06-15T04:14:24.419Z,45.59
2018-06-15T04:16:53.697Z,45.54
2018-06-15T04:19:22.850Z,45.57
2018-06-15T04:21:51.996Z,45.27
2018-06-15T04:24:21.020Z,44.84
2018-06-15T04:26:50.149Z,45.41
2018-06-15T04:29:19.433Z,43.23
2018-06-15T04:31:48.707Z,44.13
2018-06-15T04:34:17.878Z,43.87
2018-06-15T04:36:46.914Z,44.38
2018-06-15T04:39:16.097Z,43.38
2018-06-15T04:41:45.307Z,42.68
2018-06-15T04:44:14.670Z,43.72
2018-06-15T04:46:43.889Z,43.37
2018-06-15T04:49:13.062Z,44.26
2018-06-15T04:51:42.273Z,44.86
2018-06-15T04:54:11.537Z,43.57
2018-06-15T04:56:40.832Z,43.50
2018-06-15T04:59:09.969Z,42.85
2018-06-15T05:01:39.196Z,44.06
2018-06-15T05:04:08.397Z,43.84
2018-06-15T05:06:37.594Z,43.29
2018-06-15T05:09:09.459Z,43.32
2018-06-15T05:11:38.662Z,41.97
2018-06-15T05:14:07.974Z,41.75
2018-06-15T05:16:37.185Z,42.25
2018-06-15T05:19:06.779Z,41.62
2018-06-15T05:21:36.043Z,41.68
2018-06-15T05:24:05.089Z,41.58
2018-06-15T05:26:34.282Z,41.06
2018-06-15T05:29:03.470Z,41.15
2018-06-15T05:31:32.646Z,42.37
2018-06-15T05:34:01.841Z,41.09
2018-06-15T05:36:31.030Z,41.31
2018-06-15T05:39:00.224Z,41.58
2018-06-15T05:41:29.460Z,41.56
2018-06-15T05:43:58.622Z,40.65
2018-06-15T05:46:27.818Z,41.10
2018-06-15T05:48:57.231Z,41.41
2018-06-15T05:51:26.418Z,41.05
2018-06-15T05:53:55.634Z,41.63
2018-06-15T05:56:24.932Z,41.37
2018-06-15T05:58:54.149Z,40.82
2018-06-15T06:01:23.374Z,41.43
2018-06-15T06:03:52.708Z,40.12
2018-06-15T06:06:22.138Z,41.19
2018-06-15T06:08:51.350Z,41.16
2018-06-15T06:11:20.778Z,40.51
2018-06-15T06:13:50.031Z,40.49
2018-06-15T06:16:19.217Z,39.69
2018-06-15T06:18:48.483Z,39.97
2018-06-15T06:21:17.634Z,38.75
2018-06-15T06:23:46.818Z,38.85
2018-06-15T06:26:16.000Z,38.73
2018-06-15T06:28:45.141Z,39.00
2018-06-15T06:31:15.081Z,38.92
2018-06-15T06:33:44.242Z,38.15
2018-06-15T06:36:13.531Z,38.86
2018-06-15T06:38:42.841Z,38.78
2018-06-15T06:41:12.054Z,38.17
2018-06-15T06:43:41.375Z,38.37
2018-06-15T06:46:10.582Z,37.54
2018-06-15T06:48:39.876Z,38.37
2018-06-15T06:51:09.096Z,38.34
2018-06-15T06:53:38.223Z,38.21
2018-06-15T06:56:07.498Z,38.77
2018-06-15T06:58:36.740Z,38.49
2018-06-15T07:01:05.905Z,39.83
2018-06-15T07:03:35.106Z,39.49
2018-06-15T07:06:04.412Z,38.38
2018-06-15T07:08:33.753Z,39.30
2018-06-15T07:11:02.923Z,39.10
2018-06-15T07:13:32.069Z,37.90
2018-06-15T07:16:01.307Z,38.54
2018-06-15T07:18:30.481Z,38.18
2018-06-15T07:20:59.873Z,37.47
2018-06-15T07:23:29.155Z,37.89
2018-06-15T07:25:58.437Z,37.13
2018-06-15T07:28:27.632Z,37.12
2018-06-15T07:30:56.839Z,36.86
2018-06-15T07:33:26.174Z,36.25
2018-06-15T07:35:55.518Z,36.71
2018-06-15T07:38:24.677Z,34.90
2018-06-15T07:40:54.004Z,36.31
2018-06-15T07:43:23.321Z,36.48
2018-06-15T07:45:52.622Z,36.83
2018-06-15T07:48:21.779Z,35.82
2018-06-15T07:50:51.029Z,36.22
2018-06-15T07:53:20.212Z,34.28
2018-06-15T07:55:49.410Z,33.81
2018-06-15T07:58:18.685Z,32.57
2018-06-15T08:00:47.898Z,32.75
2018-06-15T08:03:17.107Z,31.98
2018-06-15T08:05:46.260Z,31.22
2018-06-15T08:08:15.503Z,30.23
2018-06-15T08:10:44.740Z,30.48
2018-06-15T08:13:14.214Z,30.77
2018-06-15T08:15:43.388Z,30.23
2018-06-15T08:18:12.583Z,29.73
2018-06-15T08:20:41.778Z,30.02
2018-06-15T08:23:10.949Z,29.88
2018-06-15T08:25:43.176Z,28.18
2018-06-15T08:28:12.389Z,28.69
2018-06-15T08:30:41.555Z,27.79
2018-06-15T08:33:10.721Z,27.67
2018-06-15T08:35:39.942Z,27.19
2018-06-15T08:38:09.144Z,26.56
2018-06-15T08:40:38.353Z,27.52
2018-06-15T08:43:07.549Z,27.36
2018-06-15T08:45:37.426Z,27.82
2018-06-15T08:48:06.681Z,29.52
2018-06-15T08:50:36.169Z,30.74
2018-06-15T08:53:05.517Z,31.11
2018-06-15T08:55:34.696Z,30.34
2018-06-15T08:58:03.949Z,29.54
2018-06-15T09:00:33.285Z,28.95
2018-06-15T09:03:02.706Z,28.02
2018-06-15T09:05:31.994Z,28.18
2018-06-15T09:08:01.234Z,28.57
2018-06-15T09:10:30.720Z,30.49
2018-06-15T09:12:59.938Z,30.52
2018-06-15T09:15:28.961Z,29.53
2018-06-15T09:17:58.165Z,28.72
2018-06-15T09:20:27.285Z,29.38
2018-06-15T09:22:57.274Z,28.74
2018-06-15T09:25:26.467Z,29.43
2018-06-15T09:27:55.583Z,29.36
2018-06-15T09:30:24.765Z,30.40
2018-06-15T09:32:53.963Z,30.51
2018-06-15T09:35:23.178Z,30.08
2018-06-15T09:37:52.460Z,30.14
2018-06-15T09:40:21.696Z,31.36
2018-06-15T09:42:50.873Z,30.12
2018-06-15T09:45:20.215Z,30.24
2018-06-15T09:47:49.335Z,28.09
2018-06-15T09:50:18.510Z,27.97
2018-06-15T09:52:47.726Z,28.87
2018-06-15T09:55:16.877Z,29.69
2018-06-15T09:57:46.006Z,29.72
2018-06-15T10:00:23.966Z,29.45
2018-06-15T10:02:53.147Z,29.57
2018-06-15T10:05:22.345Z,28.07
2018-06-15T10:07:51.474Z,28.42
2018-06-15T10:10:20.616Z,27.15
2018-06-15T10:12:49.816Z,26.93
2018-06-15T10:15:18.931Z,26.88
2018-06-15T10:17:48.265Z,27.84
2018-06-15T10:20:17.398Z,30.07
2018-06-15T10:22:46.506Z,30.63
2018-06-15T10:25:15.695Z,28.79
2018-06-15T10:27:44.873Z,28.29
2018-06-15T10:30:14.041Z,29.71
2018-06-15T10:32:43.387Z,30.11
2018-06-15T10:35:12.579Z,31.22
2018-06-15T10:37:41.756Z,31.18
2018-06-15T10:40:10.960Z,32.01
2018-06-15T10:42:40.126Z,30.30
2018-06-15T10:45:09.393Z,28.36
2018-06-15T10:47:38.578Z,26.99
2018-06-15T10:50:07.730Z,25.42
2018-06-15T10:52:36.848Z,24.16
2018-06-15T10:55:06.885Z,23.97
2018-06-15T10:57:36.038Z,24.14
2018-06-15T11:00:05.347Z,24.38
2018-06-15T11:02:34.622Z,24.69
2018-06-15T11:05:03.767Z,24.97
2018-06-15T11:07:32.961Z,25.65
2018-06-15T11:10:02.140Z,27.52
2018-06-15T11:12:31.447Z,28.62
2018-06-15T11:15:00.611Z,29.05
2018-06-15T11:17:29.914Z,28.47
2018-06-15T11:19:59.094Z,28.25
2018-06-15T11:22:28.262Z,28.75
2018-06-15T11:24:57.442Z,28.34
2018-06-15T11:27:26.585Z,27.71
2018-06-15T11:29:55.833Z,28.10
2018-06-15T11:32:25.000Z,27.18
2018-06-15T11:34:54.156Z,27.28
2018-06-15T11:37:23.432Z,27.94
2018-06-15T11:39:52.601Z,27.13
2018-06-15T11:42:21.870Z,27.03
2018-06-15T11:44:51.091Z,26.53
2018-06-15T11:47:20.308Z,25.57
2018-06-15T11:49:49.594Z,27.22
2018-06-15T11:52:18.828Z,29.92
2018-06-15T11:54:48.068Z,29.46
2018-06-15T11:57:17.231Z,29.33
2018-06-15T11:59:46.349Z,30.97
2018-06-15T12:02:15.628Z,32.04
2018-06-15T12:04:44.975Z,31.96
2018-06-15T12:07:14.192Z,32.25
2018-06-15T12:09:43.683Z,32.80
2018-06-15T12:12:12.863Z,32.94
2018-06-15T12:14:42.127Z,35.06
2018-06-15T12:17:11.393Z,34.10
2018-06-15T12:19:40.667Z,33.78
2018-06-15T12:22:09.891Z,32.91
2018-06-15T12:24:39.038Z,33.14
2018-06-15T12:27:08.313Z,100.00
2018-06-15T12:29:37.638Z,100.00
2018-06-15T12:32:07.086Z,100.00
2018-06-15T12:34:36.360Z,100.00
2018-06-15T12:37:05.580Z,100.00
2018-06-15T12:39:35.396Z,100.00
2018-06-15T12:42:05.746Z,100.00
2018-06-15T12:44:35.285Z,100.00
2018-06-15T12:47:04.518Z,100.00
2018-06-15T12:49:33.975Z,100.00
2018-06-15T12:52:03.350Z,100.00
2018-06-15T12:54:32.663Z,100.00
2018-06-15T12:57:02.153Z,100.00
2018-06-15T12:59:31.379Z,100.00
2018-06-15T13:02:01.247Z,100.00
2018-06-15T13:04:31.197Z,100.00
2018-06-15T13:07:00.669Z,100.00
2018-06-15T13:09:29.980Z,100.00
2018-06-15T13:11:59.578Z,100.00
2018-06-15T13:14:29.057Z,100.00
2018-06-15T13:16:58.455Z,100.00
